Terminal Aerodrome Forecast
Issued by NWS Huntsville, AL

Home | Current Version | Previous Version | Text Only | Print | Product List | Glossary On
Versions: 1 2 3 4 5 6 7 8 9 10 11 12 13 14 15 16 17 18 19 20 21 22 23 24 25 26 27 28 29 30 31 32 33 34 35 36 37 38 39 40 41
000
FTUS44 KHUN 101202 AAA
TAFMSL
TAF AMD
KMSL 101202Z 1012/1112 00000KT P6SM SCT005 BKN040
     FM101500 05005KT P6SM SCT050 SCT250
     FM101800 06007KT P6SM SCT070 SCT250
     FM110100 04001KT P6SM SKC=

USA.gov is the U.S. government's official web portal to all federal, state and local government web resources and services.